sensor_id;sensor_type;location;lat;lon;timestamp;temperature;humidity
2002;DHT22;1003;48.002;7.788;2023-03-17T00:01:12;3.80;99.90
2002;DHT22;1003;48.002;7.788;2023-03-17T00:03:42;3.60;99.90
2002;DHT22;1003;48.002;7.788;2023-03-17T00:06:13;3.60;99.90
2002;DHT22;1003;48.002;7.788;2023-03-17T00:08:44;3.40;99.90
2002;DHT22;1003;48.002;7.788;2023-03-17T00:11:14;3.40;99.90
2002;DHT22;1003;48.002;7.788;2023-03-17T00:13:42;3.30;99.90
2002;DHT22;1003;48.002;7.788;2023-03-17T00:16:14;3.30;99.90
2002;DHT22;1003;48.002;7.788;2023-03-17T00:18:43;3.30;99.90
2002;DHT22;1003;48.002;7.788;2023-03-17T00:21:13;3.30;99.90
2002;DHT22;1003;48.002;7.788;2023-03-17T00:23:47;3.30;99.90
2002;DHT22;1003;48.002;7.788;2023-03-17T00:26:18;3.40;99.90
2002;DHT22;1003;48.002;7.788;2023-03-17T00:28:45;3.40;99.90
2002;DHT22;1003;48.002;7.788;2023-03-17T00:31:15;3.50;99.90
2002;DHT22;1003;48.002;7.788;2023-03-17T00:33:44;3.40;99.90
2002;DHT22;1003;48.002;7.788;2023-03-17T00:36:15;3.30;99.90
2002;DHT22;1003;48.002;7.788;2023-03-17T00:38:44;3.10;99.90
2002;DHT22;1003;48.002;7.788;2023-03-17T00:41:12;3.00;99.90
2002;DHT22;1003;48.002;7.788;2023-03-17T00:43:40;3.00;99.90
2002;DHT22;1003;48.002;7.788;2023-03-17T00:46:12;2.90;99.90
2002;DHT22;1003;48.002;7.788;2023-03-17T00:48:41;2.80;99.90
2002;DHT22;1003;48.002;7.788;2023-03-17T00:51:10;2.90;99.90
2002;DHT22;1003;48.002;7.788;2023-03-17T00:53:37;2.90;99.90
2002;DHT22;1003;48.002;7.788;2023-03-17T00:56:11;2.90;99.90
2002;DHT22;1003;48.002;7.788;2023-03-17T00:58:42;2.90;99.90
2002;DHT22;1003;48.002;7.788;2023-03-17T01:01:09;2.90;99.90
2002;DHT22;1003;48.002;7.788;2023-03-17T01:03:37;3.00;99.90
2002;DHT22;1003;48.002;7.788;2023-03-17T01:06:09;3.00;99.90
2002;DHT22;1003;48.002;7.788;2023-03-17T01:08:39;2.90;99.90
2002;DHT22;1003;48.002;7.788;2023-03-17T01:11:13;3.00;99.90
2002;DHT22;1003;48.002;7.788;2023-03-17T01:13:44;2.90;99.90
2002;DHT22;1003;48.002;7.788;2023-03-17T01:16:12;2.90;99.90
2002;DHT22;1003;48.002;7.788;2023-03-17T01:18:39;2.90;99.90
2002;DHT22;1003;48.002;7.788;2023-03-17T01:21:07;2.90;99.90
2002;DHT22;1003;48.002;7.788;2023-03-17T01:23:34;2.80;99.90
2002;DHT22;1003;48.002;7.788;2023-03-17T01:26:02;2.80;99.90
2002;DHT22;1003;48.002;7.788;2023-03-17T01:28:29;2.80;99.90
2002;DHT22;1003;48.002;7.788;2023-03-17T01:30:57;2.80;99.90
2002;DHT22;1003;48.002;7.788;2023-03-17T01:33:25;2.80;99.90
2002;DHT22;1003;48.002;7.788;2023-03-17T01:35:52;2.80;99.90
2002;DHT22;1003;48.002;7.788;2023-03-17T01:38:19;2.80;99.90
2002;DHT22;1003;48.002;7.788;2023-03-17T01:40:49;2.90;99.90
2002;DHT22;1003;48.002;7.788;2023-03-17T01:43:20;2.90;99.90
2002;DHT22;1003;48.002;7.788;2023-03-17T01:46:18;3.00;99.90
2002;DHT22;1003;48.002;7.788;2023-03-17T01:48:53;3.00;99.90
2002;DHT22;1003;48.002;7.788;2023-03-17T01:51:31;3.00;99.90
2002;DHT22;1003;48.002;7.788;2023-03-17T01:54:04;3.00;99.90
2002;DHT22;1003;48.002;7.788;2023-03-17T01:56:35;3.00;99.90
2002;DHT22;1003;48.002;7.788;2023-03-17T01:59:09;3.00;99.90
2002;DHT22;1003;48.002;7.788;2023-03-17T02:01:44;3.00;99.90
2002;DHT22;1003;48.002;7.788;2023-03-17T02:04:17;3.10;99.90
2002;DHT22;1003;48.002;7.788;2023-03-17T02:06:47;3.10;99.90
2002;DHT22;1003;48.002;7.788;2023-03-17T02:09:16;3.10;99.90
2002;DHT22;1003;48.002;7.788;2023-03-17T02:11:43;3.10;99.90
2002;DHT22;1003;48.002;7.788;2023-03-17T02:14:11;3.20;99.90
2002;DHT22;1003;48.002;7.788;2023-03-17T02:16:40;3.20;99.90
2002;DHT22;1003;48.002;7.788;2023-03-17T02:19:09;3.10;99.90
2002;DHT22;1003;48.002;7.788;2023-03-17T02:21:40;3.00;99.90
2002;DHT22;1003;48.002;7.788;2023-03-17T02:24:13;3.00;99.90
2002;DHT22;1003;48.002;7.788;2023-03-17T02:26:46;2.90;99.90
2002;DHT22;1003;48.002;7.788;2023-03-17T02:29:15;2.80;99.90
2002;DHT22;1003;48.002;7.788;2023-03-17T02:31:44;2.80;99.90
2002;DHT22;1003;48.002;7.788;2023-03-17T02:34:11;2.70;99.90
2002;DHT22;1003;48.002;7.788;2023-03-17T02:36:41;2.70;99.90
2002;DHT22;1003;48.002;7.788;2023-03-17T02:39:08;2.60;99.90
2002;DHT22;1003;48.002;7.788;2023-03-17T02:41:35;2.60;99.90
2002;DHT22;1003;48.002;7.788;2023-03-17T02:44:03;2.50;99.90
2002;DHT22;1003;48.002;7.788;2023-03-17T02:46:30;2.50;99.90
2002;DHT22;1003;48.002;7.788;2023-03-17T02:48:57;2.50;99.90
2002;DHT22;1003;48.002;7.788;2023-03-17T02:51:25;2.50;99.90
2002;DHT22;1003;48.002;7.788;2023-03-17T02:53:53;2.50;99.90
2002;DHT22;1003;48.002;7.788;2023-03-17T02:56:20;2.50;99.90
2002;DHT22;1003;48.002;7.788;2023-03-17T02:58:47;2.40;99.90
2002;DHT22;1003;48.002;7.788;2023-03-17T03:01:14;2.40;99.90
2002;DHT22;1003;48.002;7.788;2023-03-17T03:03:42;2.40;99.90
2002;DHT22;1003;48.002;7.788;2023-03-17T03:06:10;2.30;99.90
2002;DHT22;1003;48.002;7.788;2023-03-17T03:08:39;2.30;99.90
2002;DHT22;1003;48.002;7.788;2023-03-17T03:11:07;2.30;99.90
2002;DHT22;1003;48.002;7.788;2023-03-17T03:13:34;2.20;99.90
2002;DHT22;1003;48.002;7.788;2023-03-17T03:16:02;2.20;99.90
2002;DHT22;1003;48.002;7.788;2023-03-17T03:18:30;2.20;99.90
2002;DHT22;1003;48.002;7.788;2023-03-17T03:20:57;2.20;99.90
2002;DHT22;1003;48.002;7.788;2023-03-17T03:23:24;2.20;99.90
2002;DHT22;1003;48.002;7.788;2023-03-17T03:25:52;2.10;99.90
2002;DHT22;1003;48.002;7.788;2023-03-17T03:28:20;2.10;99.90
2002;DHT22;1003;48.002;7.788;2023-03-17T03:30:47;2.10;99.90
2002;DHT22;1003;48.002;7.788;2023-03-17T03:33:15;2.10;99.90
2002;DHT22;1003;48.002;7.788;2023-03-17T03:35:42;2.20;99.90
2002;DHT22;1003;48.002;7.788;2023-03-17T03:38:11;2.20;99.90
2002;DHT22;1003;48.002;7.788;2023-03-17T03:40:40;2.20;99.90
2002;DHT22;1003;48.002;7.788;2023-03-17T03:43:07;2.10;99.90
2002;DHT22;1003;48.002;7.788;2023-03-17T03:45:36;2.10;99.90
2002;DHT22;1003;48.002;7.788;2023-03-17T03:48:04;2.00;99.90
2002;DHT22;1003;48.002;7.788;2023-03-17T03:50:31;1.90;99.90
2002;DHT22;1003;48.002;7.788;2023-03-17T03:52:58;1.80;99.90
2002;DHT22;1003;48.002;7.788;2023-03-17T03:55:25;1.80;99.90
2002;DHT22;1003;48.002;7.788;2023-03-17T03:57:52;1.80;99.90
2002;DHT22;1003;48.002;7.788;2023-03-17T04:00:20;1.70;99.90
2002;DHT22;1003;48.002;7.788;2023-03-17T04:02:48;1.70;99.90
2002;DHT22;1003;48.002;7.788;2023-03-17T04:05:16;1.60;99.90
2002;DHT22;1003;48.002;7.788;2023-03-17T04:07:44;1.60;99.90
2002;DHT22;1003;48.002;7.788;2023-03-17T04:10:12;1.50;99.90
2002;DHT22;1003;48.002;7.788;2023-03-17T04:12:41;1.50;99.90
2002;DHT22;1003;48.002;7.788;2023-03-17T04:15:10;1.40;99.90
2002;DHT22;1003;48.002;7.788;2023-03-17T04:17:40;1.40;99.90
2002;DHT22;1003;48.002;7.788;2023-03-17T04:20:11;1.40;99.90
2002;DHT22;1003;48.002;7.788;2023-03-17T04:22:39;1.40;99.90
2002;DHT22;1003;48.002;7.788;2023-03-17T04:25:08;1.30;99.90
2002;DHT22;1003;48.002;7.788;2023-03-17T04:27:36;1.30;99.90
2002;DHT22;1003;48.002;7.788;2023-03-17T04:30:07;1.30;99.90
2002;DHT22;1003;48.002;7.788;2023-03-17T04:32:36;1.30;99.90
2002;DHT22;1003;48.002;7.788;2023-03-17T04:35:04;1.40;99.90
2002;DHT22;1003;48.002;7.788;2023-03-17T04:37:35;1.40;99.90
2002;DHT22;1003;48.002;7.788;2023-03-17T04:40:04;1.30;99.90
2002;DHT22;1003;48.002;7.788;2023-03-17T04:42:32;1.30;99.90
2002;DHT22;1003;48.002;7.788;2023-03-17T04:44:59;1.30;99.90
2002;DHT22;1003;48.002;7.788;2023-03-17T04:47:26;1.20;99.90
2002;DHT22;1003;48.002;7.788;2023-03-17T04:49:53;1.10;99.90
2002;DHT22;1003;48.002;7.788;2023-03-17T04:52:21;1.10;99.90
2002;DHT22;1003;48.002;7.788;2023-03-17T04:54:49;1.10;99.90
2002;DHT22;1003;48.002;7.788;2023-03-17T04:57:16;1.00;99.90
2002;DHT22;1003;48.002;7.788;2023-03-17T04:59:43;0.90;99.90
2002;DHT22;1003;48.002;7.788;2023-03-17T05:02:11;0.90;99.90
2002;DHT22;1003;48.002;7.788;2023-03-17T05:04:38;0.90;99.90
2002;DHT22;1003;48.002;7.788;2023-03-17T05:07:05;0.80;99.90
2002;DHT22;1003;48.002;7.788;2023-03-17T05:09:32;0.70;99.90
2002;DHT22;1003;48.002;7.788;2023-03-17T05:12:01;0.60;99.90
2002;DHT22;1003;48.002;7.788;2023-03-17T05:14:28;0.50;99.90
2002;DHT22;1003;48.002;7.788;2023-03-17T05:16:55;0.60;99.90
2002;DHT22;1003;48.002;7.788;2023-03-17T05:19:22;0.60;99.90
2002;DHT22;1003;48.002;7.788;2023-03-17T05:21:49;0.80;99.90
2002;DHT22;1003;48.002;7.788;2023-03-17T05:24:16;1.00;99.90
2002;DHT22;1003;48.002;7.788;2023-03-17T05:26:43;1.20;99.90
2002;DHT22;1003;48.002;7.788;2023-03-17T05:29:12;1.30;99.90
2002;DHT22;1003;48.002;7.788;2023-03-17T05:31:39;1.40;99.90
2002;DHT22;1003;48.002;7.788;2023-03-17T05:34:06;1.40;99.90
2002;DHT22;1003;48.002;7.788;2023-03-17T05:36:33;1.40;99.90
2002;DHT22;1003;48.002;7.788;2023-03-17T05:39:01;1.30;99.90
2002;DHT22;1003;48.002;7.788;2023-03-17T05:41:29;1.30;99.90
2002;DHT22;1003;48.002;7.788;2023-03-17T05:43:58;1.30;99.90
2002;DHT22;1003;48.002;7.788;2023-03-17T05:46:26;1.20;99.90
2002;DHT22;1003;48.002;7.788;2023-03-17T05:48:53;1.10;99.90
2002;DHT22;1003;48.002;7.788;2023-03-17T05:51:21;1.10;99.90
2002;DHT22;1003;48.002;7.788;2023-03-17T05:53:48;1.10;99.90
2002;DHT22;1003;48.002;7.788;2023-03-17T05:56:16;1.10;99.90
2002;DHT22;1003;48.002;7.788;2023-03-17T05:58:43;1.10;99.90
2002;DHT22;1003;48.002;7.788;2023-03-17T06:01:10;1.20;99.90
2002;DHT22;1003;48.002;7.788;2023-03-17T06:03:40;1.30;99.90
2002;DHT22;1003;48.002;7.788;2023-03-17T06:06:08;1.30;99.90
2002;DHT22;1003;48.002;7.788;2023-03-17T06:08:35;1.40;99.90
2002;DHT22;1003;48.002;7.788;2023-03-17T06:11:02;1.40;99.90
2002;DHT22;1003;48.002;7.788;2023-03-17T06:13:31;1.30;99.90
2002;DHT22;1003;48.002;7.788;2023-03-17T06:15:58;1.40;99.90
2002;DHT22;1003;48.002;7.788;2023-03-17T06:18:25;1.60;99.90
2002;DHT22;1003;48.002;7.788;2023-03-17T06:20:53;1.80;99.90
2002;DHT22;1003;48.002;7.788;2023-03-17T06:23:20;2.10;99.90
2002;DHT22;1003;48.002;7.788;2023-03-17T06:25:48;2.50;99.90
2002;DHT22;1003;48.002;7.788;2023-03-17T06:28:15;2.90;99.90
2002;DHT22;1003;48.002;7.788;2023-03-17T06:30:42;3.20;99.90
2002;DHT22;1003;48.002;7.788;2023-03-17T06:33:10;3.40;99.90
2002;DHT22;1003;48.002;7.788;2023-03-17T06:35:37;3.50;99.90
2002;DHT22;1003;48.002;7.788;2023-03-17T06:38:06;3.70;99.90
2002;DHT22;1003;48.002;7.788;2023-03-17T06:40:33;3.80;99.90
2002;DHT22;1003;48.002;7.788;2023-03-17T06:43:00;4.00;99.90
2002;DHT22;1003;48.002;7.788;2023-03-17T06:45:27;4.20;99.90
2002;DHT22;1003;48.002;7.788;2023-03-17T06:47:55;4.40;99.90
2002;DHT22;1003;48.002;7.788;2023-03-17T06:50:22;4.60;99.90
2002;DHT22;1003;48.002;7.788;2023-03-17T06:52:50;4.90;99.90
2002;DHT22;1003;48.002;7.788;2023-03-17T06:55:18;5.10;99.90
2002;DHT22;1003;48.002;7.788;2023-03-17T06:57:46;5.50;99.90
2002;DHT22;1003;48.002;7.788;2023-03-17T07:00:13;5.90;99.90
2002;DHT22;1003;48.002;7.788;2023-03-17T07:02:41;6.20;99.90
2002;DHT22;1003;48.002;7.788;2023-03-17T07:05:08;6.30;99.90
2002;DHT22;1003;48.002;7.788;2023-03-17T07:07:37;6.10;99.90
2002;DHT22;1003;48.002;7.788;2023-03-17T07:10:05;5.90;99.90
2002;DHT22;1003;48.002;7.788;2023-03-17T07:12:36;5.90;99.90
2002;DHT22;1003;48.002;7.788;2023-03-17T07:15:04;5.90;99.90
2002;DHT22;1003;48.002;7.788;2023-03-17T07:17:31;6.10;99.90
2002;DHT22;1003;48.002;7.788;2023-03-17T07:19:58;6.30;99.90
2002;DHT22;1003;48.002;7.788;2023-03-17T07:22:26;6.50;99.90
2002;DHT22;1003;48.002;7.788;2023-03-17T07:24:53;6.80;99.90
2002;DHT22;1003;48.002;7.788;2023-03-17T07:27:21;6.90;99.90
2002;DHT22;1003;48.002;7.788;2023-03-17T07:29:51;7.10;99.90
2002;DHT22;1003;48.002;7.788;2023-03-17T07:32:18;7.20;99.90
2002;DHT22;1003;48.002;7.788;2023-03-17T07:34:45;7.50;99.90
2002;DHT22;1003;48.002;7.788;2023-03-17T07:37:12;7.80;99.90
2002;DHT22;1003;48.002;7.788;2023-03-17T07:39:39;8.00;99.90
2002;DHT22;1003;48.002;7.788;2023-03-17T07:42:08;8.20;99.90
2002;DHT22;1003;48.002;7.788;2023-03-17T07:44:36;8.40;99.90
2002;DHT22;1003;48.002;7.788;2023-03-17T07:47:08;8.30;99.90
2002;DHT22;1003;48.002;7.788;2023-03-17T07:49:36;8.40;99.90
2002;DHT22;1003;48.002;7.788;2023-03-17T07:52:04;8.40;99.90
2002;DHT22;1003;48.002;7.788;2023-03-17T07:54:32;8.30;99.90
2002;DHT22;1003;48.002;7.788;2023-03-17T07:57:00;8.50;99.90
2002;DHT22;1003;48.002;7.788;2023-03-17T07:59:27;8.70;99.90
2002;DHT22;1003;48.002;7.788;2023-03-17T08:01:54;8.80;99.90
2002;DHT22;1003;48.002;7.788;2023-03-17T08:04:23;8.90;99.90
2002;DHT22;1003;48.002;7.788;2023-03-17T08:06:52;9.10;99.90
2002;DHT22;1003;48.002;7.788;2023-03-17T08:09:19;9.10;99.90
2002;DHT22;1003;48.002;7.788;2023-03-17T08:11:46;9.40;99.90
2002;DHT22;1003;48.002;7.788;2023-03-17T08:14:13;9.50;99.90
2002;DHT22;1003;48.002;7.788;2023-03-17T08:16:41;9.40;99.90
2002;DHT22;1003;48.002;7.788;2023-03-17T08:19:08;9.30;99.90
2002;DHT22;1003;48.002;7.788;2023-03-17T08:21:36;9.40;99.90
2002;DHT22;1003;48.002;7.788;2023-03-17T08:24:04;9.40;99.90
2002;DHT22;1003;48.002;7.788;2023-03-17T08:26:31;9.50;99.90
2002;DHT22;1003;48.002;7.788;2023-03-17T08:28:58;9.70;99.90
2002;DHT22;1003;48.002;7.788;2023-03-17T08:31:26;9.80;99.90
2002;DHT22;1003;48.002;7.788;2023-03-17T08:33:53;9.70;99.90
2002;DHT22;1003;48.002;7.788;2023-03-17T08:36:22;9.90;99.90
2002;DHT22;1003;48.002;7.788;2023-03-17T08:38:52;9.80;99.90
2002;DHT22;1003;48.002;7.788;2023-03-17T08:41:21;9.80;99.90
2002;DHT22;1003;48.002;7.788;2023-03-17T08:43:49;9.90;99.90
2002;DHT22;1003;48.002;7.788;2023-03-17T08:46:19;10.10;99.90
2002;DHT22;1003;48.002;7.788;2023-03-17T08:48:49;10.10;99.90
2002;DHT22;1003;48.002;7.788;2023-03-17T08:51:19;10.20;99.90
2002;DHT22;1003;48.002;7.788;2023-03-17T08:53:47;10.30;99.90
2002;DHT22;1003;48.002;7.788;2023-03-17T08:56:16;10.40;99.90
2002;DHT22;1003;48.002;7.788;2023-03-17T08:58:43;10.50;99.90
2002;DHT22;1003;48.002;7.788;2023-03-17T09:01:11;10.50;99.90
2002;DHT22;1003;48.002;7.788;2023-03-17T09:03:40;10.50;99.90
2002;DHT22;1003;48.002;7.788;2023-03-17T09:06:10;10.50;99.90
2002;DHT22;1003;48.002;7.788;2023-03-17T09:08:39;10.60;99.90
2002;DHT22;1003;48.002;7.788;2023-03-17T09:11:18;10.80;99.90
2002;DHT22;1003;48.002;7.788;2023-03-17T09:13:48;11.10;99.90
2002;DHT22;1003;48.002;7.788;2023-03-17T09:16:16;11.20;99.90
2002;DHT22;1003;48.002;7.788;2023-03-17T09:18:44;11.10;99.90
2002;DHT22;1003;48.002;7.788;2023-03-17T09:21:12;11.20;99.90
2002;DHT22;1003;48.002;7.788;2023-03-17T09:23:41;11.40;99.90
2002;DHT22;1003;48.002;7.788;2023-03-17T09:26:08;11.70;99.90
2002;DHT22;1003;48.002;7.788;2023-03-17T09:28:37;12.00;99.90
2002;DHT22;1003;48.002;7.788;2023-03-17T09:31:05;11.90;99.90
2002;DHT22;1003;48.002;7.788;2023-03-17T09:33:36;11.90;99.90
2002;DHT22;1003;48.002;7.788;2023-03-17T09:36:06;12.00;99.90
2002;DHT22;1003;48.002;7.788;2023-03-17T09:38:34;12.00;99.90
2002;DHT22;1003;48.002;7.788;2023-03-17T09:41:19;12.20;99.90
2002;DHT22;1003;48.002;7.788;2023-03-17T09:44:01;12.10;99.90
2002;DHT22;1003;48.002;7.788;2023-03-17T09:46:44;12.20;99.90
2002;DHT22;1003;48.002;7.788;2023-03-17T09:49:20;12.40;99.90
2002;DHT22;1003;48.002;7.788;2023-03-17T09:51:50;12.50;99.90
2002;DHT22;1003;48.002;7.788;2023-03-17T09:54:25;12.40;99.90
2002;DHT22;1003;48.002;7.788;2023-03-17T09:56:59;12.60;99.90
2002;DHT22;1003;48.002;7.788;2023-03-17T09:59:33;12.70;99.90
2002;DHT22;1003;48.002;7.788;2023-03-17T10:02:16;12.90;99.90
2002;DHT22;1003;48.002;7.788;2023-03-17T10:04:47;12.90;99.90
2002;DHT22;1003;48.002;7.788;2023-03-17T10:07:18;13.10;99.90
2002;DHT22;1003;48.002;7.788;2023-03-17T10:09:57;13.30;99.90
2002;DHT22;1003;48.002;7.788;2023-03-17T10:12:37;13.40;99.90
2002;DHT22;1003;48.002;7.788;2023-03-17T10:15:32;13.80;99.90
2002;DHT22;1003;48.002;7.788;2023-03-17T10:18:08;14.10;99.90
2002;DHT22;1003;48.002;7.788;2023-03-17T10:20:43;14.10;99.90
2002;DHT22;1003;48.002;7.788;2023-03-17T10:23:17;13.90;99.90
2002;DHT22;1003;48.002;7.788;2023-03-17T10:25:46;13.90;99.90
2002;DHT22;1003;48.002;7.788;2023-03-17T10:28:23;14.00;99.90
2002;DHT22;1003;48.002;7.788;2023-03-17T10:31:14;14.00;99.90
2002;DHT22;1003;48.002;7.788;2023-03-17T10:33:43;13.90;99.90
2002;DHT22;1003;48.002;7.788;2023-03-17T10:36:15;14.10;99.90
2002;DHT22;1003;48.002;7.788;2023-03-17T10:38:49;14.50;99.90
2002;DHT22;1003;48.002;7.788;2023-03-17T10:41:18;14.80;99.90
2002;DHT22;1003;48.002;7.788;2023-03-17T10:43:48;15.10;99.90
2002;DHT22;1003;48.002;7.788;2023-03-17T10:46:19;15.50;99.90
2002;DHT22;1003;48.002;7.788;2023-03-17T10:48:50;15.70;99.90
2002;DHT22;1003;48.002;7.788;2023-03-17T10:51:28;15.70;99.90
2002;DHT22;1003;48.002;7.788;2023-03-17T10:53:59;15.50;99.90
2002;DHT22;1003;48.002;7.788;2023-03-17T10:56:33;15.20;99.90
2002;DHT22;1003;48.002;7.788;2023-03-17T10:59:05;15.40;99.90
2002;DHT22;1003;48.002;7.788;2023-03-17T11:01:38;15.40;99.90
2002;DHT22;1003;48.002;7.788;2023-03-17T11:04:25;15.50;99.90
2002;DHT22;1003;48.002;7.788;2023-03-17T11:06:55;15.80;99.90
2002;DHT22;1003;48.002;7.788;2023-03-17T11:09:25;15.70;99.90
2002;DHT22;1003;48.002;7.788;2023-03-17T11:12:02;15.60;99.90
2002;DHT22;1003;48.002;7.788;2023-03-17T11:14:30;15.70;99.90
2002;DHT22;1003;48.002;7.788;2023-03-17T11:17:01;16.20;99.90
2002;DHT22;1003;48.002;7.788;2023-03-17T11:19:39;16.80;99.90
2002;DHT22;1003;48.002;7.788;2023-03-17T11:22:14;17.10;99.90
2002;DHT22;1003;48.002;7.788;2023-03-17T11:24:53;17.10;99.90
2002;DHT22;1003;48.002;7.788;2023-03-17T11:27:31;16.90;99.90
2002;DHT22;1003;48.002;7.788;2023-03-17T11:30:15;16.80;99.90
2002;DHT22;1003;48.002;7.788;2023-03-17T11:32:57;16.90;99.90
2002;DHT22;1003;48.002;7.788;2023-03-17T11:35:38;17.10;99.90
2002;DHT22;1003;48.002;7.788;2023-03-17T11:38:25;17.40;99.90
2002;DHT22;1003;48.002;7.788;2023-03-17T11:41:18;17.80;99.90
2002;DHT22;1003;48.002;7.788;2023-03-17T11:47:00;18.00;99.90
2002;DHT22;1003;48.002;7.788;2023-03-17T11:49:36;18.10;99.90
2002;DHT22;1003;48.002;7.788;2023-03-17T11:52:09;18.00;99.90
2002;DHT22;1003;48.002;7.788;2023-03-17T11:54:49;18.10;99.90
2002;DHT22;1003;48.002;7.788;2023-03-17T11:57:26;18.10;99.90
2002;DHT22;1003;48.002;7.788;2023-03-17T11:59:59;18.20;99.90
2002;DHT22;1003;48.002;7.788;2023-03-17T12:02:37;18.20;99.90
2002;DHT22;1003;48.002;7.788;2023-03-17T12:05:12;18.50;99.90
2002;DHT22;1003;48.002;7.788;2023-03-17T12:07:47;18.60;99.90
2002;DHT22;1003;48.002;7.788;2023-03-17T12:10:22;19.20;99.90
2002;DHT22;1003;48.002;7.788;2023-03-17T12:12:56;19.10;99.90
2002;DHT22;1003;48.002;7.788;2023-03-17T12:15:31;19.20;99.90
2002;DHT22;1003;48.002;7.788;2023-03-17T12:18:04;19.20;99.90
2002;DHT22;1003;48.002;7.788;2023-03-17T12:20:45;18.90;99.90
2002;DHT22;1003;48.002;7.788;2023-03-17T12:23:27;18.90;99.90
2002;DHT22;1003;48.002;7.788;2023-03-17T12:26:02;18.80;99.90
2002;DHT22;1003;48.002;7.788;2023-03-17T12:28:37;19.00;99.90
2002;DHT22;1003;48.002;7.788;2023-03-17T12:31:13;19.20;99.90
2002;DHT22;1003;48.002;7.788;2023-03-17T12:33:48;19.30;99.90
2002;DHT22;1003;48.002;7.788;2023-03-17T12:36:23;19.10;99.90
2002;DHT22;1003;48.002;7.788;2023-03-17T12:38:53;19.20;99.90
2002;DHT22;1003;48.002;7.788;2023-03-17T12:41:53;19.50;99.90
2002;DHT22;1003;48.002;7.788;2023-03-17T12:44:54;20.00;99.90
2002;DHT22;1003;48.002;7.788;2023-03-17T12:47:59;20.30;99.90
2002;DHT22;1003;48.002;7.788;2023-03-17T12:50:54;20.50;99.90
2002;DHT22;1003;48.002;7.788;2023-03-17T12:53:43;20.70;99.90
2002;DHT22;1003;48.002;7.788;2023-03-17T12:56:19;21.10;99.90
2002;DHT22;1003;48.002;7.788;2023-03-17T12:58:52;21.10;99.90
2002;DHT22;1003;48.002;7.788;2023-03-17T13:01:29;20.80;99.90
2002;DHT22;1003;48.002;7.788;2023-03-17T13:04:19;20.70;99.90
2002;DHT22;1003;48.002;7.788;2023-03-17T13:06:55;20.80;99.90
2002;DHT22;1003;48.002;7.788;2023-03-17T13:09:34;20.90;99.90
2002;DHT22;1003;48.002;7.788;2023-03-17T13:12:54;21.20;99.90
2002;DHT22;1003;48.002;7.788;2023-03-17T13:15:57;21.20;99.90
2002;DHT22;1003;48.002;7.788;2023-03-17T13:18:49;21.00;99.90
2002;DHT22;1003;48.002;7.788;2023-03-17T13:21:24;21.10;99.90
2002;DHT22;1003;48.002;7.788;2023-03-17T13:23:57;20.90;99.90
2002;DHT22;1003;48.002;7.788;2023-03-17T13:26:53;21.00;99.90
2002;DHT22;1003;48.002;7.788;2023-03-17T13:32:29;21.00;99.90
2002;DHT22;1003;48.002;7.788;2023-03-17T13:38:27;20.70;99.90
2002;DHT22;1003;48.002;7.788;2023-03-17T13:41:21;20.30;99.90
2002;DHT22;1003;48.002;7.788;2023-03-17T13:44:12;20.80;99.90
2002;DHT22;1003;48.002;7.788;2023-03-17T13:46:49;20.80;99.90
2002;DHT22;1003;48.002;7.788;2023-03-17T13:49:27;21.00;99.90
2002;DHT22;1003;48.002;7.788;2023-03-17T13:52:02;21.00;99.90
2002;DHT22;1003;48.002;7.788;2023-03-17T13:54:41;20.80;99.90
2002;DHT22;1003;48.002;7.788;2023-03-17T13:57:27;21.10;99.90
2002;DHT22;1003;48.002;7.788;2023-03-17T14:00:01;21.50;99.90
2002;DHT22;1003;48.002;7.788;2023-03-17T14:02:39;21.60;99.90
2002;DHT22;1003;48.002;7.788;2023-03-17T14:05:18;21.70;99.90
2002;DHT22;1003;48.002;7.788;2023-03-17T14:07:54;21.60;99.90
2002;DHT22;1003;48.002;7.788;2023-03-17T14:10:27;21.60;99.90
2002;DHT22;1003;48.002;7.788;2023-03-17T14:13:00;21.20;99.90
2002;DHT22;1003;48.002;7.788;2023-03-17T14:15:43;21.00;99.90
2002;DHT22;1003;48.002;7.788;2023-03-17T14:18:16;21.10;99.90
2002;DHT22;1003;48.002;7.788;2023-03-17T14:20:52;21.10;99.90
2002;DHT22;1003;48.002;7.788;2023-03-17T14:23:19;21.20;99.90
2002;DHT22;1003;48.002;7.788;2023-03-17T14:25:47;21.10;99.90
2002;DHT22;1003;48.002;7.788;2023-03-17T14:28:16;21.10;99.90
2002;DHT22;1003;48.002;7.788;2023-03-17T14:30:53;21.00;98.40
2002;DHT22;1003;48.002;7.788;2023-03-17T14:33:24;20.80;98.00
2002;DHT22;1003;48.002;7.788;2023-03-17T14:35:55;20.70;97.20
2002;DHT22;1003;48.002;7.788;2023-03-17T14:38:25;20.70;97.40
2002;DHT22;1003;48.002;7.788;2023-03-17T14:40:59;20.90;97.00
2002;DHT22;1003;48.002;7.788;2023-03-17T14:43:32;20.90;96.50
2002;DHT22;1003;48.002;7.788;2023-03-17T14:46:04;20.90;97.50
2002;DHT22;1003;48.002;7.788;2023-03-17T14:48:33;20.90;97.60
2002;DHT22;1003;48.002;7.788;2023-03-17T14:51:05;20.90;97.80
2002;DHT22;1003;48.002;7.788;2023-03-17T14:53:38;20.80;98.60
2002;DHT22;1003;48.002;7.788;2023-03-17T14:56:07;20.70;98.80
2002;DHT22;1003;48.002;7.788;2023-03-17T14:58:38;20.60;98.60
2002;DHT22;1003;48.002;7.788;2023-03-17T15:01:15;20.50;99.80
2002;DHT22;1003;48.002;7.788;2023-03-17T15:03:53;20.50;99.70
2002;DHT22;1003;48.002;7.788;2023-03-17T15:06:23;20.40;99.60
2002;DHT22;1003;48.002;7.788;2023-03-17T15:08:56;20.50;99.90
2002;DHT22;1003;48.002;7.788;2023-03-17T15:11:26;20.30;99.90
2002;DHT22;1003;48.002;7.788;2023-03-17T15:14:04;20.30;99.30
2002;DHT22;1003;48.002;7.788;2023-03-17T15:16:42;20.10;99.90
2002;DHT22;1003;48.002;7.788;2023-03-17T15:19:19;19.80;99.90
2002;DHT22;1003;48.002;7.788;2023-03-17T15:21:48;19.50;99.90
2002;DHT22;1003;48.002;7.788;2023-03-17T15:24:26;19.40;99.90
2002;DHT22;1003;48.002;7.788;2023-03-17T15:27:00;19.20;99.90
2002;DHT22;1003;48.002;7.788;2023-03-17T15:29:29;19.10;99.90
2002;DHT22;1003;48.002;7.788;2023-03-17T15:32:05;18.80;99.90
2002;DHT22;1003;48.002;7.788;2023-03-17T15:34:37;18.70;99.60
2002;DHT22;1003;48.002;7.788;2023-03-17T15:37:12;18.70;99.00
2002;DHT22;1003;48.002;7.788;2023-03-17T15:39:41;18.60;98.10
2002;DHT22;1003;48.002;7.788;2023-03-17T15:42:08;18.50;97.70
2002;DHT22;1003;48.002;7.788;2023-03-17T15:44:36;18.20;97.60
2002;DHT22;1003;48.002;7.788;2023-03-17T15:47:04;18.20;98.50
2002;DHT22;1003;48.002;7.788;2023-03-17T15:49:31;18.00;97.00
2002;DHT22;1003;48.002;7.788;2023-03-17T15:52:00;17.90;97.10
2002;DHT22;1003;48.002;7.788;2023-03-17T15:54:27;17.80;97.80
2002;DHT22;1003;48.002;7.788;2023-03-17T15:56:54;17.80;97.30
2002;DHT22;1003;48.002;7.788;2023-03-17T15:59:23;17.80;96.60
2002;DHT22;1003;48.002;7.788;2023-03-17T16:01:51;17.80;96.20
2002;DHT22;1003;48.002;7.788;2023-03-17T16:04:19;17.80;96.50
2002;DHT22;1003;48.002;7.788;2023-03-17T16:06:46;17.70;97.00
2002;DHT22;1003;48.002;7.788;2023-03-17T16:09:15;17.60;97.00
2002;DHT22;1003;48.002;7.788;2023-03-17T16:11:42;17.50;96.40
2002;DHT22;1003;48.002;7.788;2023-03-17T16:14:10;17.50;96.40
2002;DHT22;1003;48.002;7.788;2023-03-17T16:16:38;17.50;96.60
2002;DHT22;1003;48.002;7.788;2023-03-17T16:19:13;17.50;96.10
2002;DHT22;1003;48.002;7.788;2023-03-17T16:21:46;17.50;97.10
2002;DHT22;1003;48.002;7.788;2023-03-17T16:24:17;17.30;97.10
2002;DHT22;1003;48.002;7.788;2023-03-17T16:26:46;17.20;97.50
2002;DHT22;1003;48.002;7.788;2023-03-17T16:29:14;17.20;97.90
2002;DHT22;1003;48.002;7.788;2023-03-17T16:31:44;17.00;98.50
2002;DHT22;1003;48.002;7.788;2023-03-17T16:34:14;17.00;98.90
2002;DHT22;1003;48.002;7.788;2023-03-17T16:36:43;16.90;99.40
2002;DHT22;1003;48.002;7.788;2023-03-17T16:39:16;16.70;99.80
2002;DHT22;1003;48.002;7.788;2023-03-17T16:41:44;16.60;99.90
2002;DHT22;1003;48.002;7.788;2023-03-17T16:44:13;16.50;99.90
2002;DHT22;1003;48.002;7.788;2023-03-17T16:46:41;16.50;99.90